Sausalito, California
Current Conditions -  °F | °C
As of 4:53 PM on Thursday 18 Dec 2014 (Local Time) from KOAK Reporting Station
Overcast Overcast  
Wind Chill: 57°   Ceiling: 4900
Heat Index: 57°   Visibility: 10mi
Dew Point: 51°   Wind: 5mph
Humidity: 81%   Direction: 290°WNW
Pressure: 30.15"   Gusts: NA
Location:  37.86°N, 122.48°W
Report Text: KOAK 190053Z 29004KT 10SM FEW020 SCT042 BKN049 OVC180 14/11 A3015 RMK AO2 SLP208 T01390106
Loading
Personal Weather Stations






























Interactive Weather Map New forecast layout! Learn more

10-Day Weather Forecast

Advertisements
Track Severe Weather on mobile